sensor_id;sensor_type;location;lat;lon;timestamp;P1;durP1;ratioP1;P2;durP2;ratioP2
5157;SDS011;2598;52.364;9.772;2023-02-28T00:00:00;8.70;;;3.80;;
5157;SDS011;2598;52.364;9.772;2023-02-28T00:02:33;9.38;;;3.65;;
5157;SDS011;2598;52.364;9.772;2023-02-28T00:04:59;6.75;;;3.10;;
5157;SDS011;2598;52.364;9.772;2023-02-28T00:07:26;8.88;;;3.15;;
5157;SDS011;2598;52.364;9.772;2023-02-28T00:09:52;13.30;;;4.15;;
5157;SDS011;2598;52.364;9.772;2023-02-28T00:12:18;10.30;;;3.60;;
5157;SDS011;2598;52.364;9.772;2023-02-28T00:14:45;9.30;;;3.30;;
5157;SDS011;2598;52.364;9.772;2023-02-28T00:17:11;9.20;;;3.60;;
5157;SDS011;2598;52.364;9.772;2023-02-28T00:19:37;7.07;;;3.30;;
5157;SDS011;2598;52.364;9.772;2023-02-28T00:22:02;8.63;;;3.50;;
5157;SDS011;2598;52.364;9.772;2023-02-28T00:24:28;7.80;;;3.10;;
5157;SDS011;2598;52.364;9.772;2023-02-28T00:26:54;8.03;;;3.70;;
5157;SDS011;2598;52.364;9.772;2023-02-28T00:29:20;9.63;;;3.33;;
5157;SDS011;2598;52.364;9.772;2023-02-28T00:31:46;10.40;;;3.57;;
5157;SDS011;2598;52.364;9.772;2023-02-28T00:34:12;10.33;;;3.33;;
5157;SDS011;2598;52.364;9.772;2023-02-28T00:36:38;9.17;;;3.57;;
5157;SDS011;2598;52.364;9.772;2023-02-28T00:39:05;8.13;;;3.42;;
5157;SDS011;2598;52.364;9.772;2023-02-28T00:41:31;10.53;;;3.23;;
5157;SDS011;2598;52.364;9.772;2023-02-28T00:43:57;9.63;;;3.07;;
5157;SDS011;2598;52.364;9.772;2023-02-28T00:46:23;8.40;;;3.90;;
5157;SDS011;2598;52.364;9.772;2023-02-28T00:48:49;10.10;;;3.40;;
5157;SDS011;2598;52.364;9.772;2023-02-28T00:51:15;11.00;;;3.30;;
5157;SDS011;2598;52.364;9.772;2023-02-28T00:53:41;9.37;;;3.60;;
5157;SDS011;2598;52.364;9.772;2023-02-28T00:56:07;7.70;;;3.43;;
5157;SDS011;2598;52.364;9.772;2023-02-28T00:58:33;7.20;;;3.55;;
5157;SDS011;2598;52.364;9.772;2023-02-28T01:00:59;7.40;;;3.37;;
5157;SDS011;2598;52.364;9.772;2023-02-28T01:03:25;9.00;;;3.17;;
5157;SDS011;2598;52.364;9.772;2023-02-28T01:05:51;7.40;;;3.20;;
5157;SDS011;2598;52.364;9.772;2023-02-28T01:08:20;10.98;;;3.50;;
5157;SDS011;2598;52.364;9.772;2023-02-28T01:10:46;7.43;;;3.00;;
5157;SDS011;2598;52.364;9.772;2023-02-28T01:13:12;7.43;;;2.92;;
5157;SDS011;2598;52.364;9.772;2023-02-28T01:15:39;10.30;;;3.90;;
5157;SDS011;2598;52.364;9.772;2023-02-28T01:18:07;8.73;;;3.65;;
5157;SDS011;2598;52.364;9.772;2023-02-28T01:20:33;9.27;;;3.40;;
5157;SDS011;2598;52.364;9.772;2023-02-28T01:23:01;7.18;;;3.38;;
5157;SDS011;2598;52.364;9.772;2023-02-28T01:25:27;7.57;;;3.30;;
5157;SDS011;2598;52.364;9.772;2023-02-28T01:27:53;6.57;;;3.03;;
5157;SDS011;2598;52.364;9.772;2023-02-28T01:30:19;7.93;;;3.07;;
5157;SDS011;2598;52.364;9.772;2023-02-28T01:32:45;7.50;;;2.88;;
5157;SDS011;2598;52.364;9.772;2023-02-28T01:35:11;9.83;;;3.30;;
5157;SDS011;2598;52.364;9.772;2023-02-28T01:37:37;11.43;;;3.50;;
5157;SDS011;2598;52.364;9.772;2023-02-28T01:40:04;15.18;;;3.35;;
5157;SDS011;2598;52.364;9.772;2023-02-28T01:42:30;10.43;;;3.05;;
5157;SDS011;2598;52.364;9.772;2023-02-28T01:45:00;9.30;;;3.60;;
5157;SDS011;2598;52.364;9.772;2023-02-28T01:47:28;7.78;;;3.10;;
5157;SDS011;2598;52.364;9.772;2023-02-28T01:49:54;7.53;;;3.25;;
5157;SDS011;2598;52.364;9.772;2023-02-28T01:52:21;7.25;;;3.38;;
5157;SDS011;2598;52.364;9.772;2023-02-28T01:54:56;9.00;;;3.08;;
5157;SDS011;2598;52.364;9.772;2023-02-28T01:57:24;9.40;;;3.10;;
5157;SDS011;2598;52.364;9.772;2023-02-28T01:59:52;7.85;;;3.22;;
5157;SDS011;2598;52.364;9.772;2023-02-28T02:02:20;6.75;;;2.70;;
5157;SDS011;2598;52.364;9.772;2023-02-28T02:04:51;7.18;;;3.28;;
5157;SDS011;2598;52.364;9.772;2023-02-28T02:07:18;8.70;;;3.42;;
5157;SDS011;2598;52.364;9.772;2023-02-28T02:09:45;16.23;;;3.88;;
5157;SDS011;2598;52.364;9.772;2023-02-28T02:12:15;8.37;;;3.20;;
5157;SDS011;2598;52.364;9.772;2023-02-28T02:14:48;14.02;;;3.80;;
5157;SDS011;2598;52.364;9.772;2023-02-28T02:17:23;7.63;;;2.83;;
5157;SDS011;2598;52.364;9.772;2023-02-28T02:28:03;9.43;;;3.50;;
5157;SDS011;2598;52.364;9.772;2023-02-28T02:38:21;7.30;;;3.65;;
5157;SDS011;2598;52.364;9.772;2023-02-28T02:43:33;6.38;;;3.22;;
5157;SDS011;2598;52.364;9.772;2023-02-28T02:46:09;7.30;;;3.53;;
5157;SDS011;2598;52.364;9.772;2023-02-28T02:48:36;9.45;;;3.40;;
5157;SDS011;2598;52.364;9.772;2023-02-28T02:51:06;9.88;;;3.15;;
5157;SDS011;2598;52.364;9.772;2023-02-28T02:53:37;8.93;;;3.17;;
5157;SDS011;2598;52.364;9.772;2023-02-28T02:56:06;7.68;;;3.25;;
5157;SDS011;2598;52.364;9.772;2023-02-28T02:58:35;13.93;;;4.15;;
5157;SDS011;2598;52.364;9.772;2023-02-28T03:01:07;7.82;;;3.95;;
5157;SDS011;2598;52.364;9.772;2023-02-28T03:03:34;8.93;;;3.30;;
5157;SDS011;2598;52.364;9.772;2023-02-28T03:06:01;8.50;;;3.00;;
5157;SDS011;2598;52.364;9.772;2023-02-28T03:08:28;11.05;;;3.97;;
5157;SDS011;2598;52.364;9.772;2023-02-28T03:10:56;8.63;;;3.35;;
5157;SDS011;2598;52.364;9.772;2023-02-28T03:18:39;9.00;;;3.03;;
5157;SDS011;2598;52.364;9.772;2023-02-28T03:21:16;9.55;;;3.38;;
5157;SDS011;2598;52.364;9.772;2023-02-28T03:23:59;8.02;;;3.30;;
5157;SDS011;2598;52.364;9.772;2023-02-28T03:26:27;10.70;;;3.42;;
5157;SDS011;2598;52.364;9.772;2023-02-28T03:29:15;9.88;;;3.63;;
5157;SDS011;2598;52.364;9.772;2023-02-28T03:31:44;10.93;;;3.38;;
5157;SDS011;2598;52.364;9.772;2023-02-28T03:34:23;7.78;;;3.33;;
5157;SDS011;2598;52.364;9.772;2023-02-28T03:36:52;8.85;;;3.40;;
5157;SDS011;2598;52.364;9.772;2023-02-28T03:39:34;7.68;;;3.65;;
5157;SDS011;2598;52.364;9.772;2023-02-28T03:42:09;7.47;;;3.30;;
5157;SDS011;2598;52.364;9.772;2023-02-28T03:44:38;9.60;;;3.83;;
5157;SDS011;2598;52.364;9.772;2023-02-28T03:47:10;10.95;;;3.17;;
5157;SDS011;2598;52.364;9.772;2023-02-28T03:49:41;9.13;;;3.80;;
5157;SDS011;2598;52.364;9.772;2023-02-28T03:52:12;7.45;;;3.03;;
5157;SDS011;2598;52.364;9.772;2023-02-28T03:54:41;7.90;;;3.23;;
5157;SDS011;2598;52.364;9.772;2023-02-28T03:57:20;8.80;;;3.50;;
5157;SDS011;2598;52.364;9.772;2023-02-28T03:59:54;7.88;;;3.33;;
5157;SDS011;2598;52.364;9.772;2023-02-28T04:02:22;7.85;;;3.50;;
5157;SDS011;2598;52.364;9.772;2023-02-28T04:04:48;7.17;;;3.17;;
5157;SDS011;2598;52.364;9.772;2023-02-28T04:07:15;8.63;;;3.30;;
5157;SDS011;2598;52.364;9.772;2023-02-28T04:09:40;6.80;;;3.13;;
5157;SDS011;2598;52.364;9.772;2023-02-28T04:12:06;9.63;;;3.30;;
5157;SDS011;2598;52.364;9.772;2023-02-28T04:14:33;6.93;;;3.00;;
5157;SDS011;2598;52.364;9.772;2023-02-28T04:16:59;9.10;;;3.50;;
5157;SDS011;2598;52.364;9.772;2023-02-28T04:19:25;11.97;;;3.63;;
5157;SDS011;2598;52.364;9.772;2023-02-28T04:21:51;9.85;;;4.00;;
5157;SDS011;2598;52.364;9.772;2023-02-28T04:24:21;7.88;;;3.17;;
5157;SDS011;2598;52.364;9.772;2023-02-28T04:26:47;10.10;;;3.63;;
5157;SDS011;2598;52.364;9.772;2023-02-28T04:29:20;6.47;;;3.15;;
5157;SDS011;2598;52.364;9.772;2023-02-28T04:31:46;8.95;;;3.42;;
5157;SDS011;2598;52.364;9.772;2023-02-28T04:34:12;6.80;;;2.97;;
5157;SDS011;2598;52.364;9.772;2023-02-28T04:36:38;10.65;;;3.13;;
5157;SDS011;2598;52.364;9.772;2023-02-28T04:39:04;6.72;;;3.20;;
5157;SDS011;2598;52.364;9.772;2023-02-28T04:41:30;7.93;;;3.33;;
5157;SDS011;2598;52.364;9.772;2023-02-28T04:43:56;8.87;;;3.70;;
5157;SDS011;2598;52.364;9.772;2023-02-28T04:46:22;14.63;;;3.40;;
5157;SDS011;2598;52.364;9.772;2023-02-28T04:48:48;8.27;;;3.55;;
5157;SDS011;2598;52.364;9.772;2023-02-28T04:51:16;9.00;;;3.40;;
5157;SDS011;2598;52.364;9.772;2023-02-28T04:53:42;9.25;;;3.53;;
5157;SDS011;2598;52.364;9.772;2023-02-28T04:56:10;7.53;;;2.77;;
5157;SDS011;2598;52.364;9.772;2023-02-28T04:58:37;12.18;;;3.65;;
5157;SDS011;2598;52.364;9.772;2023-02-28T05:01:03;10.00;;;3.50;;
5157;SDS011;2598;52.364;9.772;2023-02-28T05:03:29;11.60;;;3.75;;
5157;SDS011;2598;52.364;9.772;2023-02-28T05:05:55;8.00;;;2.67;;
5157;SDS011;2598;52.364;9.772;2023-02-28T05:08:21;16.20;;;3.00;;
5157;SDS011;2598;52.364;9.772;2023-02-28T05:10:48;9.55;;;3.40;;
5157;SDS011;2598;52.364;9.772;2023-02-28T05:13:14;8.20;;;3.00;;
5157;SDS011;2598;52.364;9.772;2023-02-28T05:15:40;9.60;;;3.33;;
5157;SDS011;2598;52.364;9.772;2023-02-28T05:18:06;10.07;;;3.60;;
5157;SDS011;2598;52.364;9.772;2023-02-28T05:20:31;8.03;;;2.83;;
5157;SDS011;2598;52.364;9.772;2023-02-28T05:22:58;9.20;;;3.67;;
5157;SDS011;2598;52.364;9.772;2023-02-28T05:25:24;8.15;;;3.60;;
5157;SDS011;2598;52.364;9.772;2023-02-28T05:27:50;9.77;;;4.20;;
5157;SDS011;2598;52.364;9.772;2023-02-28T05:30:16;19.67;;;3.83;;
5157;SDS011;2598;52.364;9.772;2023-02-28T05:32:42;7.80;;;2.95;;
5157;SDS011;2598;52.364;9.772;2023-02-28T05:35:09;8.27;;;3.40;;
5157;SDS011;2598;52.364;9.772;2023-02-28T05:37:36;12.75;;;3.47;;
5157;SDS011;2598;52.364;9.772;2023-02-28T05:40:02;9.80;;;3.40;;
5157;SDS011;2598;52.364;9.772;2023-02-28T05:42:31;8.68;;;3.70;;
5157;SDS011;2598;52.364;9.772;2023-02-28T05:44:57;8.70;;;3.00;;
5157;SDS011;2598;52.364;9.772;2023-02-28T05:47:23;10.30;;;3.80;;
5157;SDS011;2598;52.364;9.772;2023-02-28T05:49:49;11.80;;;4.37;;
5157;SDS011;2598;52.364;9.772;2023-02-28T05:52:15;7.30;;;3.57;;
5157;SDS011;2598;52.364;9.772;2023-02-28T05:54:41;14.93;;;3.60;;
5157;SDS011;2598;52.364;9.772;2023-02-28T05:57:07;12.57;;;3.77;;
5157;SDS011;2598;52.364;9.772;2023-02-28T05:59:33;11.90;;;3.60;;
5157;SDS011;2598;52.364;9.772;2023-02-28T06:01:59;8.90;;;3.60;;
5157;SDS011;2598;52.364;9.772;2023-02-28T06:04:25;8.37;;;3.63;;
5157;SDS011;2598;52.364;9.772;2023-02-28T06:06:51;7.33;;;3.33;;
5157;SDS011;2598;52.364;9.772;2023-02-28T06:09:17;6.75;;;3.45;;
5157;SDS011;2598;52.364;9.772;2023-02-28T06:11:44;10.02;;;3.85;;
5157;SDS011;2598;52.364;9.772;2023-02-28T06:14:12;8.50;;;3.55;;
5157;SDS011;2598;52.364;9.772;2023-02-28T06:16:39;8.23;;;3.20;;
5157;SDS011;2598;52.364;9.772;2023-02-28T06:19:05;10.50;;;3.87;;
5157;SDS011;2598;52.364;9.772;2023-02-28T06:21:31;10.40;;;4.20;;
5157;SDS011;2598;52.364;9.772;2023-02-28T06:23:58;7.88;;;3.20;;
5157;SDS011;2598;52.364;9.772;2023-02-28T06:26:24;9.63;;;3.85;;
5157;SDS011;2598;52.364;9.772;2023-02-28T06:28:50;10.73;;;4.38;;
5157;SDS011;2598;52.364;9.772;2023-02-28T06:31:17;8.95;;;4.07;;
5157;SDS011;2598;52.364;9.772;2023-02-28T06:33:43;8.13;;;3.13;;
5157;SDS011;2598;52.364;9.772;2023-02-28T06:36:10;8.88;;;4.05;;
5157;SDS011;2598;52.364;9.772;2023-02-28T06:38:36;9.43;;;4.50;;
5157;SDS011;2598;52.364;9.772;2023-02-28T06:41:03;12.20;;;4.07;;
5157;SDS011;2598;52.364;9.772;2023-02-28T06:43:30;8.95;;;3.65;;
5157;SDS011;2598;52.364;9.772;2023-02-28T06:45:57;10.18;;;3.00;;
5157;SDS011;2598;52.364;9.772;2023-02-28T06:48:23;10.20;;;4.03;;
5157;SDS011;2598;52.364;9.772;2023-02-28T06:50:49;13.75;;;3.58;;
5157;SDS011;2598;52.364;9.772;2023-02-28T06:53:15;14.32;;;4.00;;
5157;SDS011;2598;52.364;9.772;2023-02-28T06:55:41;9.70;;;4.47;;
5157;SDS011;2598;52.364;9.772;2023-02-28T06:58:07;8.40;;;3.35;;
5157;SDS011;2598;52.364;9.772;2023-02-28T07:00:40;12.77;;;4.07;;
5157;SDS011;2598;52.364;9.772;2023-02-28T07:03:07;9.38;;;3.60;;
5157;SDS011;2598;52.364;9.772;2023-02-28T07:05:34;19.73;;;4.60;;
5157;SDS011;2598;52.364;9.772;2023-02-28T07:08:00;15.20;;;3.90;;
5157;SDS011;2598;52.364;9.772;2023-02-28T07:10:26;10.85;;;3.75;;
5157;SDS011;2598;52.364;9.772;2023-02-28T07:12:52;11.35;;;4.03;;
5157;SDS011;2598;52.364;9.772;2023-02-28T07:15:18;13.60;;;4.70;;
5157;SDS011;2598;52.364;9.772;2023-02-28T07:17:44;10.43;;;4.17;;
5157;SDS011;2598;52.364;9.772;2023-02-28T07:20:10;10.33;;;4.13;;
5157;SDS011;2598;52.364;9.772;2023-02-28T07:22:36;11.65;;;6.05;;
5157;SDS011;2598;52.364;9.772;2023-02-28T07:25:03;12.93;;;5.15;;
5157;SDS011;2598;52.364;9.772;2023-02-28T07:27:30;18.92;;;5.22;;
5157;SDS011;2598;52.364;9.772;2023-02-28T07:29:56;11.60;;;4.15;;
5157;SDS011;2598;52.364;9.772;2023-02-28T07:32:26;10.05;;;4.80;;
5157;SDS011;2598;52.364;9.772;2023-02-28T07:34:52;14.35;;;4.80;;
5157;SDS011;2598;52.364;9.772;2023-02-28T07:37:18;11.13;;;5.40;;
5157;SDS011;2598;52.364;9.772;2023-02-28T07:39:44;14.60;;;7.90;;
5157;SDS011;2598;52.364;9.772;2023-02-28T07:42:10;20.70;;;10.80;;
5157;SDS011;2598;52.364;9.772;2023-02-28T07:44:38;25.63;;;9.40;;
5157;SDS011;2598;52.364;9.772;2023-02-28T07:47:09;22.25;;;9.40;;
5157;SDS011;2598;52.364;9.772;2023-02-28T07:49:35;17.85;;;7.75;;
5157;SDS011;2598;52.364;9.772;2023-02-28T07:52:02;12.45;;;6.15;;
5157;SDS011;2598;52.364;9.772;2023-02-28T07:54:28;12.57;;;5.38;;
5157;SDS011;2598;52.364;9.772;2023-02-28T07:56:55;12.35;;;4.75;;
5157;SDS011;2598;52.364;9.772;2023-02-28T07:59:21;10.97;;;5.03;;
5157;SDS011;2598;52.364;9.772;2023-02-28T08:01:46;8.27;;;4.23;;
5157;SDS011;2598;52.364;9.772;2023-02-28T08:04:15;12.52;;;5.60;;
5157;SDS011;2598;52.364;9.772;2023-02-28T08:06:41;21.80;;;4.57;;
5157;SDS011;2598;52.364;9.772;2023-02-28T08:09:07;12.37;;;4.33;;
5157;SDS011;2598;52.364;9.772;2023-02-28T08:11:33;11.27;;;4.53;;
5157;SDS011;2598;52.364;9.772;2023-02-28T08:13:59;9.37;;;4.30;;
5157;SDS011;2598;52.364;9.772;2023-02-28T08:16:25;11.50;;;4.63;;
5157;SDS011;2598;52.364;9.772;2023-02-28T08:18:51;9.30;;;4.17;;
5157;SDS011;2598;52.364;9.772;2023-02-28T08:21:17;10.55;;;3.80;;
5157;SDS011;2598;52.364;9.772;2023-02-28T08:23:43;9.05;;;3.83;;
5157;SDS011;2598;52.364;9.772;2023-02-28T08:26:09;10.10;;;4.10;;
5157;SDS011;2598;52.364;9.772;2023-02-28T08:28:36;13.68;;;4.05;;
5157;SDS011;2598;52.364;9.772;2023-02-28T08:31:06;8.80;;;4.17;;
5157;SDS011;2598;52.364;9.772;2023-02-28T08:33:32;15.65;;;4.10;;
5157;SDS011;2598;52.364;9.772;2023-02-28T08:35:58;7.75;;;3.50;;
5157;SDS011;2598;52.364;9.772;2023-02-28T08:38:24;7.50;;;3.03;;
5157;SDS011;2598;52.364;9.772;2023-02-28T08:40:56;13.23;;;3.80;;
5157;SDS011;2598;52.364;9.772;2023-02-28T08:43:22;8.85;;;4.05;;
5157;SDS011;2598;52.364;9.772;2023-02-28T08:45:51;8.63;;;3.80;;
5157;SDS011;2598;52.364;9.772;2023-02-28T08:48:17;10.32;;;3.55;;
5157;SDS011;2598;52.364;9.772;2023-02-28T08:50:43;7.70;;;2.87;;
5157;SDS011;2598;52.364;9.772;2023-02-28T08:53:09;9.10;;;3.47;;
5157;SDS011;2598;52.364;9.772;2023-02-28T08:55:35;11.10;;;3.73;;
5157;SDS011;2598;52.364;9.772;2023-02-28T08:58:01;8.40;;;3.27;;
5157;SDS011;2598;52.364;9.772;2023-02-28T09:00:27;7.63;;;3.17;;
5157;SDS011;2598;52.364;9.772;2023-02-28T09:02:54;7.68;;;3.15;;
5157;SDS011;2598;52.364;9.772;2023-02-28T09:05:20;8.00;;;3.70;;
5157;SDS011;2598;52.364;9.772;2023-02-28T09:07:45;7.00;;;3.10;;
5157;SDS011;2598;52.364;9.772;2023-02-28T09:10:11;7.00;;;3.23;;
5157;SDS011;2598;52.364;9.772;2023-02-28T09:12:37;7.97;;;3.20;;
5157;SDS011;2598;52.364;9.772;2023-02-28T09:15:04;10.63;;;4.30;;
5157;SDS011;2598;52.364;9.772;2023-02-28T09:17:30;11.98;;;3.92;;
5157;SDS011;2598;52.364;9.772;2023-02-28T09:19:56;7.63;;;3.50;;
5157;SDS011;2598;52.364;9.772;2023-02-28T09:22:22;9.60;;;3.80;;
5157;SDS011;2598;52.364;9.772;2023-02-28T09:24:48;8.70;;;3.33;;
5157;SDS011;2598;52.364;9.772;2023-02-28T09:27:13;9.40;;;3.47;;
5157;SDS011;2598;52.364;9.772;2023-02-28T09:29:39;8.20;;;3.00;;
5157;SDS011;2598;52.364;9.772;2023-02-28T09:32:05;5.17;;;2.27;;
5157;SDS011;2598;52.364;9.772;2023-02-28T09:34:31;8.67;;;2.57;;
5157;SDS011;2598;52.364;9.772;2023-02-28T09:36:57;9.27;;;3.27;;
5157;SDS011;2598;52.364;9.772;2023-02-28T09:39:23;8.10;;;3.20;;
5157;SDS011;2598;52.364;9.772;2023-02-28T09:41:51;8.60;;;3.50;;
5157;SDS011;2598;52.364;9.772;2023-02-28T09:47:05;7.43;;;3.10;;
5157;SDS011;2598;52.364;9.772;2023-02-28T09:49:37;5.00;;;1.47;;
5157;SDS011;2598;52.364;9.772;2023-02-28T09:52:05;7.13;;;2.47;;
5157;SDS011;2598;52.364;9.772;2023-02-28T09:54:34;8.63;;;2.57;;
5157;SDS011;2598;52.364;9.772;2023-02-28T09:57:14;7.43;;;2.80;;
5157;SDS011;2598;52.364;9.772;2023-02-28T10:05:30;7.80;;;2.63;;
5157;SDS011;2598;52.364;9.772;2023-02-28T10:08:03;4.10;;;1.57;;
5157;SDS011;2598;52.364;9.772;2023-02-28T10:13:02;8.70;;;1.93;;
5157;SDS011;2598;52.364;9.772;2023-02-28T10:15:31;6.43;;;2.00;;
5157;SDS011;2598;52.364;9.772;2023-02-28T10:17:59;4.50;;;1.47;;
5157;SDS011;2598;52.364;9.772;2023-02-28T10:20:26;5.00;;;1.58;;
5157;SDS011;2598;52.364;9.772;2023-02-28T10:23:02;5.80;;;1.70;;
5157;SDS011;2598;52.364;9.772;2023-02-28T10:25:32;5.50;;;1.20;;
5157;SDS011;2598;52.364;9.772;2023-02-28T10:28:00;7.20;;;1.87;;
5157;SDS011;2598;52.364;9.772;2023-02-28T10:30:27;5.50;;;2.20;;
5157;SDS011;2598;52.364;9.772;2023-02-28T10:32:53;5.60;;;1.90;;
5157;SDS011;2598;52.364;9.772;2023-02-28T10:35:23;5.73;;;1.87;;
5157;SDS011;2598;52.364;9.772;2023-02-28T10:37:57;5.97;;;1.77;;
5157;SDS011;2598;52.364;9.772;2023-02-28T10:45:21;37.87;;;15.10;;
5157;SDS011;2598;52.364;9.772;2023-02-28T10:47:58;10.33;;;3.60;;
5157;SDS011;2598;52.364;9.772;2023-02-28T10:52:54;4.20;;;1.23;;
5157;SDS011;2598;52.364;9.772;2023-02-28T10:57:46;5.50;;;1.57;;
5157;SDS011;2598;52.364;9.772;2023-02-28T11:00:18;5.60;;;1.63;;
5157;SDS011;2598;52.364;9.772;2023-02-28T11:02:44;5.37;;;1.80;;
5157;SDS011;2598;52.364;9.772;2023-02-28T11:05:31;4.63;;;1.50;;
5157;SDS011;2598;52.364;9.772;2023-02-28T11:10:26;4.60;;;1.23;;
5157;SDS011;2598;52.364;9.772;2023-02-28T11:12:54;6.27;;;1.50;;
5157;SDS011;2598;52.364;9.772;2023-02-28T11:15:24;4.47;;;1.40;;
5157;SDS011;2598;52.364;9.772;2023-02-28T11:17:55;4.33;;;1.60;;
5157;SDS011;2598;52.364;9.772;2023-02-28T11:20:22;5.10;;;1.17;;
5157;SDS011;2598;52.364;9.772;2023-02-28T11:22:49;5.80;;;1.73;;
5157;SDS011;2598;52.364;9.772;2023-02-28T11:25:20;4.90;;;1.30;;
5157;SDS011;2598;52.364;9.772;2023-02-28T11:27:50;11.83;;;1.43;;
5157;SDS011;2598;52.364;9.772;2023-02-28T11:30:28;4.53;;;1.40;;
5157;SDS011;2598;52.364;9.772;2023-02-28T11:32:54;4.20;;;1.30;;
5157;SDS011;2598;52.364;9.772;2023-02-28T11:35:23;4.80;;;1.47;;
5157;SDS011;2598;52.364;9.772;2023-02-28T11:37:49;4.13;;;1.50;;
5157;SDS011;2598;52.364;9.772;2023-02-28T11:40:21;4.90;;;1.90;;
5157;SDS011;2598;52.364;9.772;2023-02-28T11:45:21;7.83;;;1.60;;
5157;SDS011;2598;52.364;9.772;2023-02-28T11:50:21;4.53;;;1.60;;
5157;SDS011;2598;52.364;9.772;2023-02-28T11:52:52;5.90;;;1.70;;
5157;SDS011;2598;52.364;9.772;2023-02-28T11:55:41;4.60;;;1.40;;
5157;SDS011;2598;52.364;9.772;2023-02-28T11:58:10;7.20;;;2.10;;
5157;SDS011;2598;52.364;9.772;2023-02-28T12:00:55;5.60;;;2.00;;
5157;SDS011;2598;52.364;9.772;2023-02-28T12:03:39;4.87;;;1.70;;
5157;SDS011;2598;52.364;9.772;2023-02-28T12:08:47;5.77;;;1.80;;
5157;SDS011;2598;52.364;9.772;2023-02-28T12:11:19;5.30;;;2.10;;
5157;SDS011;2598;52.364;9.772;2023-02-28T12:13:55;7.60;;;2.50;;
5157;SDS011;2598;52.364;9.772;2023-02-28T12:16:27;5.30;;;1.90;;
5157;SDS011;2598;52.364;9.772;2023-02-28T12:19:12;11.13;;;2.40;;
5157;SDS011;2598;52.364;9.772;2023-02-28T12:26:40;7.00;;;2.17;;
5157;SDS011;2598;52.364;9.772;2023-02-28T12:29:21;12.00;;;2.40;;
5157;SDS011;2598;52.364;9.772;2023-02-28T12:31:59;5.73;;;2.33;;
5157;SDS011;2598;52.364;9.772;2023-02-28T12:34:27;5.43;;;2.33;;
5157;SDS011;2598;52.364;9.772;2023-02-28T12:36:54;5.43;;;2.13;;
5157;SDS011;2598;52.364;9.772;2023-02-28T12:41:51;7.30;;;2.53;;
5157;SDS011;2598;52.364;9.772;2023-02-28T12:44:21;5.17;;;2.00;;
5157;SDS011;2598;52.364;9.772;2023-02-28T12:46:49;7.47;;;2.53;;
5157;SDS011;2598;52.364;9.772;2023-02-28T12:49:21;9.43;;;2.47;;
5157;SDS011;2598;52.364;9.772;2023-02-28T12:51:49;9.20;;;2.00;;
5157;SDS011;2598;52.364;9.772;2023-02-28T12:54:21;8.33;;;2.60;;
5157;SDS011;2598;52.364;9.772;2023-02-28T12:59:25;7.80;;;2.10;;
5157;SDS011;2598;52.364;9.772;2023-02-28T13:01:57;8.93;;;2.20;;
5157;SDS011;2598;52.364;9.772;2023-02-28T13:04:32;6.93;;;2.50;;
5157;SDS011;2598;52.364;9.772;2023-02-28T13:07:23;6.07;;;2.17;;
5157;SDS011;2598;52.364;9.772;2023-02-28T13:09:54;5.60;;;2.20;;
5157;SDS011;2598;52.364;9.772;2023-02-28T13:12:22;7.23;;;2.10;;
5157;SDS011;2598;52.364;9.772;2023-02-28T13:14:48;5.10;;;2.10;;
5157;SDS011;2598;52.364;9.772;2023-02-28T13:17:18;6.40;;;2.27;;
5157;SDS011;2598;52.364;9.772;2023-02-28T13:24:52;7.13;;;2.33;;
5157;SDS011;2598;52.364;9.772;2023-02-28T13:27:23;4.97;;;1.77;;
5157;SDS011;2598;52.364;9.772;2023-02-28T13:29:50;5.30;;;1.97;;
5157;SDS011;2598;52.364;9.772;2023-02-28T13:32:28;6.17;;;2.40;;
5157;SDS011;2598;52.364;9.772;2023-02-28T13:47:29;5.80;;;2.30;;
5157;SDS011;2598;52.364;9.772;2023-02-28T13:50:30;5.90;;;2.20;;
5157;SDS011;2598;52.364;9.772;2023-02-28T13:55:27;7.17;;;2.67;;
5157;SDS011;2598;52.364;9.772;2023-02-28T14:00:39;5.17;;;2.53;;
5157;SDS011;2598;52.364;9.772;2023-02-28T14:03:26;5.57;;;2.40;;
5157;SDS011;2598;52.364;9.772;2023-02-28T14:08:55;6.30;;;2.67;;
5157;SDS011;2598;52.364;9.772;2023-02-28T14:11:27;5.70;;;2.00;;
5157;SDS011;2598;52.364;9.772;2023-02-28T14:13:53;8.63;;;2.80;;
5157;SDS011;2598;52.364;9.772;2023-02-28T14:16:26;7.13;;;2.37;;
5157;SDS011;2598;52.364;9.772;2023-02-28T14:18:58;5.57;;;2.40;;
5157;SDS011;2598;52.364;9.772;2023-02-28T14:21:32;6.10;;;2.53;;
5157;SDS011;2598;52.364;9.772;2023-02-28T14:31:39;8.77;;;2.40;;
5157;SDS011;2598;52.364;9.772;2023-02-28T14:36:52;6.22;;;2.60;;
5157;SDS011;2598;52.364;9.772;2023-02-28T14:39:24;6.27;;;2.40;;
5157;SDS011;2598;52.364;9.772;2023-02-28T14:41:50;5.87;;;2.10;;
5157;SDS011;2598;52.364;9.772;2023-02-28T14:44:18;5.90;;;2.30;;
5157;SDS011;2598;52.364;9.772;2023-02-28T14:46:45;6.30;;;2.30;;
5157;SDS011;2598;52.364;9.772;2023-02-28T14:49:14;9.13;;;2.20;;
5157;SDS011;2598;52.364;9.772;2023-02-28T14:51:41;5.67;;;2.43;;
5157;SDS011;2598;52.364;9.772;2023-02-28T14:54:12;5.10;;;2.10;;
5157;SDS011;2598;52.364;9.772;2023-02-28T14:56:39;6.33;;;2.37;;
5157;SDS011;2598;52.364;9.772;2023-02-28T14:59:06;5.60;;;2.23;;
5157;SDS011;2598;52.364;9.772;2023-02-28T15:01:48;5.90;;;2.00;;
5157;SDS011;2598;52.364;9.772;2023-02-28T15:04:22;5.20;;;2.23;;
5157;SDS011;2598;52.364;9.772;2023-02-28T15:07:06;5.35;;;2.22;;
5157;SDS011;2598;52.364;9.772;2023-02-28T15:09:32;5.40;;;1.93;;
5157;SDS011;2598;52.364;9.772;2023-02-28T15:11:58;6.43;;;2.33;;
5157;SDS011;2598;52.364;9.772;2023-02-28T15:14:24;5.10;;;2.00;;
5157;SDS011;2598;52.364;9.772;2023-02-28T15:16:55;9.43;;;2.70;;
5157;SDS011;2598;52.364;9.772;2023-02-28T15:19:23;4.23;;;1.97;;
5157;SDS011;2598;52.364;9.772;2023-02-28T15:21:52;7.80;;;2.40;;
5157;SDS011;2598;52.364;9.772;2023-02-28T15:24:22;4.67;;;1.60;;
5157;SDS011;2598;52.364;9.772;2023-02-28T15:26:51;6.30;;;2.43;;
5157;SDS011;2598;52.364;9.772;2023-02-28T15:29:22;4.80;;;1.80;;
5157;SDS011;2598;52.364;9.772;2023-02-28T15:31:55;10.27;;;2.60;;
5157;SDS011;2598;52.364;9.772;2023-02-28T15:34:43;5.30;;;2.37;;
5157;SDS011;2598;52.364;9.772;2023-02-28T15:39:53;5.10;;;1.90;;
5157;SDS011;2598;52.364;9.772;2023-02-28T15:42:21;5.17;;;2.00;;
5157;SDS011;2598;52.364;9.772;2023-02-28T15:44:47;6.73;;;2.27;;
5157;SDS011;2598;52.364;9.772;2023-02-28T15:47:20;6.50;;;2.40;;
5157;SDS011;2598;52.364;9.772;2023-02-28T15:49:48;6.10;;;1.93;;
5157;SDS011;2598;52.364;9.772;2023-02-28T15:52:16;5.87;;;2.60;;
5157;SDS011;2598;52.364;9.772;2023-02-28T15:54:43;7.43;;;2.83;;
5157;SDS011;2598;52.364;9.772;2023-02-28T15:57:14;6.67;;;2.40;;
5157;SDS011;2598;52.364;9.772;2023-02-28T15:59:42;10.13;;;2.57;;
5157;SDS011;2598;52.364;9.772;2023-02-28T16:02:13;6.30;;;2.70;;
5157;SDS011;2598;52.364;9.772;2023-02-28T16:07:44;6.07;;;2.43;;
5157;SDS011;2598;52.364;9.772;2023-02-28T16:10:11;6.17;;;2.60;;
5157;SDS011;2598;52.364;9.772;2023-02-28T16:12:39;5.70;;;2.17;;
5157;SDS011;2598;52.364;9.772;2023-02-28T16:15:06;6.50;;;2.30;;
5157;SDS011;2598;52.364;9.772;2023-02-28T16:17:33;6.50;;;2.10;;
5157;SDS011;2598;52.364;9.772;2023-02-28T16:20:00;6.60;;;2.83;;
5157;SDS011;2598;52.364;9.772;2023-02-28T16:22:28;6.90;;;2.47;;
5157;SDS011;2598;52.364;9.772;2023-02-28T16:24:54;6.30;;;2.20;;
5157;SDS011;2598;52.364;9.772;2023-02-28T16:27:26;7.17;;;2.20;;
5157;SDS011;2598;52.364;9.772;2023-02-28T16:29:53;7.60;;;2.70;;
5157;SDS011;2598;52.364;9.772;2023-02-28T16:32:19;6.27;;;2.47;;
5157;SDS011;2598;52.364;9.772;2023-02-28T16:34:45;5.97;;;2.37;;
5157;SDS011;2598;52.364;9.772;2023-02-28T16:37:12;5.10;;;2.20;;
5157;SDS011;2598;52.364;9.772;2023-02-28T16:39:39;5.37;;;2.07;;
5157;SDS011;2598;52.364;9.772;2023-02-28T16:42:05;7.67;;;2.47;;
5157;SDS011;2598;52.364;9.772;2023-02-28T16:44:33;5.40;;;2.40;;
5157;SDS011;2598;52.364;9.772;2023-02-28T16:46:59;6.23;;;2.67;;
5157;SDS011;2598;52.364;9.772;2023-02-28T16:49:25;5.40;;;2.20;;
5157;SDS011;2598;52.364;9.772;2023-02-28T16:51:52;9.47;;;2.63;;
5157;SDS011;2598;52.364;9.772;2023-02-28T16:54:18;6.07;;;2.60;;
5157;SDS011;2598;52.364;9.772;2023-02-28T16:56:45;6.70;;;2.80;;
5157;SDS011;2598;52.364;9.772;2023-02-28T16:59:11;5.77;;;2.20;;
5157;SDS011;2598;52.364;9.772;2023-02-28T17:01:37;5.53;;;2.40;;
5157;SDS011;2598;52.364;9.772;2023-02-28T17:04:04;5.83;;;2.60;;
5157;SDS011;2598;52.364;9.772;2023-02-28T17:06:30;5.23;;;2.13;;